To NAV CANADA Home Page Login to a new session Search on AWWS site Feedback and Comments Disclaimer Vers la page française équivalente Tips FAQ What's new on the site To the Forecasts and Observations / NOTAM section To "File a Flight Plan" website Publications and other links Update of the User's profile FIC Telephone Numbers My Weather Data Folder Route Weather Data Regional Weather Data Local Weather Data To the Forecasts and Observations / NOTAM section
Request Generated 05/26/2016 at 04:37:45 UTC . Weather information available at that time is displayed.

METAR/TAF

TALOYOAK/NU    

SPECI CYYH 260408Z 28010KT 4SM -SN BR SCT008 BKN012 BKN210 M08/M09
A3011 RMK FG1ST2SC4CI1 CI TR SLP200=
METAR CYYH 260400Z 28010KT 5SM BR SCT008 BKN012 BKN210 M08/M09 A3011
RMK FG1ST2SC3CI1 CI TR SLP201=
METAR CYYH 260300Z 27012KT 5SM BR SCT006 SCT012 SCT100 BKN210 M08/M09
A3010 RMK FG1ST2SC1AC1CI1 AC TR SLP197=
METAR CYYH 260200Z CCA 27010KT 4SM BR SCT006 BKN012 BKN100 OVC210
M07/M08 A3010 RMK FG1ST2SC2AC1CI3 AC TR FG ROLLING IN RPDLY THKNG
VIS SE 2 AND SW-W 1 SLP198=
METAR CYYH 260200Z 27010KT 4SM BR SCT006 BKN012 BKN100 OVC210 M07/M08
A3010 RMK FG1ST2SC2AC1CI3 AC TR FG ROLLING IN RPDLY THKNG SLP198=

TAF CYYH 252338Z 2600/2612 28008KT P6SM FEW010 FEW080 TEMPO 2600/2603
5SM -SN BR FEW008 OVC010
FM260300 27010KT P6SM FEW005 BKN010 TEMPO 2603/2612 2SM -SN BR
OVC005
RMK NXT FCST BY 260600Z=
Your time UTC time
Weather data provided by Environment Canada and NAV CANADA